Time;durP1;ratioP1;P1;durP2;ratioP2;P2;SDS_P1;SDS_P2;PMS_P1;PMS_P2;Temp;Humidity;BMP_temperature;BMP_pressure;BME280_temperature;BME280_humidity;BME280_pressure;Samples;Min_cycle;Max_cycle;Signal;HPM_P1;HPM_P2
2021/04/22 00:00:31;;;;;;;21.73;13.95;;;;;;;8.12;77.12;99277.75;3482264;28;20059;-50
2021/04/22 00:02:13;;;;;;;20.10;13.55;;;;;;;8.11;77.27;99291.53;3478342;28;20478;-45
2021/04/22 00:03:55;;;;;;;15.93;11.68;;;;;;;8.08;77.34;99296.63;3483344;28;20055;-46
2021/04/22 00:05:39;;;;;;;19.77;12.63;;;;;;;8.08;77.34;99295.75;3479599;28;20464;-50
2021/04/22 00:07:20;;;;;;;20.25;12.68;;;;;;;8.06;77.70;99295.72;3481821;28;20048;-45
2021/04/22 00:09:03;;;;;;;19.52;12.60;;;;;;;8.04;77.53;99289.66;3481482;28;20056;-45
2021/04/22 00:10:46;;;;;;;19.30;13.18;;;;;;;8.00;77.65;99283.56;3480755;28;20076;-45
2021/04/22 00:12:27;;;;;;;18.55;12.60;;;;;;;7.98;77.95;99292.13;3469054;28;20053;-45
2021/04/22 00:14:09;;;;;;;16.25;11.45;;;;;;;7.95;77.37;99294.66;3474463;28;20072;-53
2021/04/22 00:15:51;;;;;;;18.92;12.57;;;;;;;7.92;78.20;99290.31;3482831;28;20083;-45
2021/04/22 00:17:32;;;;;;;19.15;12.45;;;;;;;7.91;78.10;99295.44;3477242;28;20057;-45
2021/04/22 00:19:14;;;;;;;17.25;12.38;;;;;;;7.88;78.20;99298.81;3480713;28;20069;-51
2021/04/22 00:20:58;;;;;;;17.33;11.43;;;;;;;7.87;78.26;99291.09;3481475;28;20045;-52
2021/04/22 00:22:39;;;;;;;17.05;11.95;;;;;;;7.86;78.33;99297.06;3479718;28;20055;-46
2021/04/22 00:24:21;;;;;;;21.80;13.45;;;;;;;7.83;78.33;99301.34;3483269;28;20057;-45
2021/04/22 00:26:03;;;;;;;18.85;13.10;;;;;;;7.82;nan;99302.19;3479635;28;20422;-46
2021/04/22 00:27:44;;;;;;;17.30;11.85;;;;;;;7.79;78.29;99296.97;3481823;28;20076;-46
2021/04/22 00:29:26;;;;;;;15.68;11.75;;;;;;;7.78;78.31;99294.38;3472388;28;20057;-53
2021/04/22 00:31:07;;;;;;;18.83;11.95;;;;;;;7.76;78.33;99293.44;3472966;28;20081;-46
2021/04/22 00:32:49;;;;;;;18.23;12.55;;;;;;;7.74;78.38;99292.53;3469365;28;20054;-52
2021/04/22 00:34:31;;;;;;;17.08;12.07;;;;;;;7.74;78.47;99293.44;3474730;28;20049;-46
2021/04/22 00:36:13;;;;;;;17.98;12.43;;;;;;;7.73;78.41;99295.97;3483291;28;20059;-51
2021/04/22 00:37:54;;;;;;;18.95;12.13;;;;;;;7.71;78.68;99290.78;3479451;28;20537;-51
2021/04/22 00:39:38;;;;;;;17.65;10.93;;;;;;;7.71;78.36;99295.09;3482611;28;20052;-52
2021/04/22 00:41:19;;;;;;;17.45;12.05;;;;;;;7.67;78.45;99301.00;3481581;28;20048;-50
2021/04/22 00:43:02;;;;;;;20.83;12.65;;;;;;;7.63;78.96;99300.94;3481310;28;20518;-51
2021/04/22 00:44:47;;;;;;;17.73;11.73;;;;;;;7.62;78.89;99298.38;3482232;28;20103;-45
2021/04/22 00:46:28;;;;;;;19.30;11.50;;;;;;;7.60;79.08;99308.66;3478526;28;20049;-45
2021/04/22 00:48:11;;;;;;;17.65;11.43;;;;;;;7.60;78.49;99307.75;3481573;28;20505;-51
2021/04/22 00:49:53;;;;;;;19.10;12.40;;;;;;;7.60;79.01;99315.50;3478925;28;20051;-51
2021/04/22 00:51:34;;;;;;;20.52;12.57;;;;;;;7.60;78.83;99307.75;3479679;28;20060;-52
2021/04/22 00:53:17;;;;;;;16.20;11.63;;;;;;;7.63;78.82;99316.44;3481316;28;20052;-45
2021/04/22 00:54:59;;;;;;;20.02;12.40;;;;;;;7.64;78.56;99307.00;3479782;28;20056;-50
2021/04/22 00:56:40;;;;;;;16.90;10.93;;;;;;;7.64;78.41;99305.28;3482855;28;20428;-45
2021/04/22 00:58:22;;;;;;;18.42;12.00;;;;;;;7.65;78.65;99306.16;3479935;28;20098;-46
2021/04/22 01:00:08;;;;;;;16.70;12.05;;;;;;;7.63;78.42;99308.69;3482622;28;20103;-45
2021/04/22 01:01:49;;;;;;;20.30;12.70;;;;;;;7.63;78.59;99311.28;3478084;28;20052;-51
2021/04/22 01:03:31;;;;;;;20.05;11.95;;;;;;;7.61;78.78;99307.78;3480854;28;20045;-52
2021/04/22 01:05:20;;;;;;;18.70;11.95;;;;;;;7.58;78.55;99310.34;3471064;28;20104;-45
2021/04/22 01:07:02;;;;;;;19.60;12.88;;;;;;;7.55;78.74;99315.44;3471857;28;20042;-45
2021/04/22 01:08:43;;;;;;;17.73;12.35;;;;;;;7.53;78.82;99313.66;3483070;28;20115;-49
2021/04/22 01:10:26;;;;;;;17.27;12.20;;;;;;;7.49;78.79;99315.28;3479553;28;20060;-51
2021/04/22 01:12:09;;;;;;;20.02;12.98;;;;;;;7.46;78.86;99312.69;3481237;28;20049;-49
2021/04/22 01:13:50;;;;;;;18.65;12.88;;;;;;;7.43;79.10;99315.19;3477757;28;20088;-51
2021/04/22 01:15:33;;;;;;;18.95;12.80;;;;;;;7.42;79.08;99324.66;3479576;28;20045;-54
2021/04/22 01:17:14;;;;;;;20.58;12.98;;;;;;;7.39;79.23;99319.41;3481266;28;20071;-46
2021/04/22 01:18:56;;;;;;;19.30;13.20;;;;;;;7.37;79.43;99322.78;3479271;28;20136;-45
2021/04/22 01:20:41;;;;;;;16.85;11.95;;;;;;;7.34;79.14;99322.75;3482346;28;20055;-45
2021/04/22 01:22:24;;;;;;;17.98;13.13;;;;;;;7.30;79.51;99324.38;3478032;28;20045;-54
2021/04/22 01:24:07;;;;;;;18.70;12.70;;;;;;;7.28;79.56;99326.03;3481596;28;20060;-45
2021/04/22 01:25:50;;;;;;;17.67;12.77;;;;;;;7.26;79.56;99328.63;3480830;28;20471;-45
2021/04/22 01:27:31;;;;;;;18.52;12.75;;;;;;;7.24;79.68;99330.25;3478990;28;20080;-46
2021/04/22 01:29:14;;;;;;;20.45;13.02;;;;;;;7.22;79.48;99331.94;3469037;28;20054;-53
2021/04/22 01:30:56;;;;;;;19.65;12.45;;;;;;;7.20;79.72;99325.88;3473196;28;20075;-51
2021/04/22 01:32:37;;;;;;;17.73;12.35;;;;;;;7.18;80.01;99329.28;3482469;28;20045;-51
2021/04/22 01:34:19;;;;;;;18.65;13.70;;;;;;;7.16;79.81;99323.19;3477874;28;20143;-46
2021/04/22 01:36:00;;;;;;;19.35;13.02;;;;;;;7.12;80.02;99324.84;3481798;28;20045;-45
2021/04/22 01:37:43;;;;;;;18.40;13.10;;;;;;;7.08;80.29;99321.31;3480226;28;20057;-45
2021/04/22 01:39:25;;;;;;;24.55;13.32;;;;;;;7.06;80.46;99322.16;3479759;28;20068;-50
2021/04/22 01:41:07;;;;;;;20.63;12.68;;;;;;;7.05;80.23;99320.38;3469836;28;20049;-52
2021/04/22 01:42:48;;;;;;;18.70;12.40;;;;;;;7.05;80.71;99322.97;3474284;28;20081;-45
2021/04/22 01:44:30;;;;;;;18.92;12.80;;;;;;;7.04;80.46;99318.66;3483113;28;20111;-46
2021/04/22 01:46:11;;;;;;;20.48;13.15;;;;;;;7.03;80.16;99329.81;3478974;28;20049;-45
2021/04/22 01:47:53;;;;;;;16.95;12.82;;;;;;;7.02;80.46;99326.38;3481008;28;20059;-47
2021/04/22 01:49:34;;;;;;;21.30;12.95;;;;;;;7.01;80.61;99323.75;3471615;28;20077;-51
2021/04/22 01:51:16;;;;;;;18.05;12.13;;;;;;;6.99;80.54;99325.44;3469795;28;20048;-51
2021/04/22 01:52:58;;;;;;;20.17;13.70;;;;;;;6.98;80.80;99321.09;3482070;28;20049;-51
2021/04/22 01:54:40;;;;;;;20.02;13.52;;;;;;;6.97;81.07;99321.94;3477725;28;20045;-50
2021/04/22 01:56:21;;;;;;;17.15;12.65;;;;;;;6.96;80.73;99320.19;3482017;28;20060;-53
2021/04/22 01:58:03;;;;;;;19.90;13.45;;;;;;;6.93;80.44;99313.25;3477170;28;20417;-51
2021/04/22 01:59:45;;;;;;;17.17;12.15;;;;;;;6.91;80.69;99319.19;3481713;28;20049;-51
2021/04/22 02:01:26;;;;;;;18.98;13.18;;;;;;;6.87;80.93;99316.53;3483155;28;20048;-46
2021/04/22 02:03:09;;;;;;;19.30;13.30;;;;;;;6.85;81.11;99323.34;3482391;28;20053;-46
2021/04/22 02:04:50;;;;;;;18.52;13.20;;;;;;;6.83;81.18;99325.03;3470578;28;20057;-53
2021/04/22 02:06:32;;;;;;;24.63;18.42;;;;;;;6.81;81.08;99328.44;3475392;28;20057;-51
2021/04/22 02:08:14;;;;;;;28.20;17.80;;;;;;;6.79;81.34;99323.22;3484596;28;20052;-46
2021/04/22 02:09:56;;;;;;;24.55;16.02;;;;;;;6.78;81.70;99326.63;3479871;28;20048;-45
2021/04/22 02:11:37;;;;;;;19.58;14.13;;;;;;;6.75;81.62;99317.97;3483374;28;20049;-46
2021/04/22 02:13:20;;;;;;;20.58;14.07;;;;;;;6.73;81.80;99333.38;3474304;28;20148;-45
2021/04/22 02:15:03;;;;;;;21.90;13.93;;;;;;;6.72;81.70;99326.50;3479656;28;20094;-46
2021/04/22 02:16:45;;;;;;;18.77;13.52;;;;;;;6.71;82.04;99327.31;3483298;28;20057;-53
2021/04/22 02:18:26;;;;;;;19.35;13.18;;;;;;;6.70;81.97;99334.19;3476999;28;20049;-54
2021/04/22 02:20:11;;;;;;;17.33;13.30;;;;;;;6.72;81.95;99333.34;3470338;28;20119;-53
2021/04/22 02:21:52;;;;;;;18.42;13.05;;;;;;;6.73;82.07;99332.53;3480200;28;20041;-53
2021/04/22 02:23:34;;;;;;;19.67;13.25;;;;;;;6.73;82.05;99329.94;3481855;28;21213;-51
2021/04/22 02:25:18;;;;;;;25.38;14.57;;;;;;;6.73;82.11;99329.94;3482391;28;20056;-50
2021/04/22 02:26:59;;;;;;;18.33;12.60;;;;;;;6.71;81.80;99332.47;3479249;28;20056;-51
2021/04/22 02:28:41;;;;;;;19.85;13.63;;;;;;;6.69;82.10;99322.13;3484166;28;20204;-51
2021/04/22 02:30:25;;;;;;;17.95;13.38;;;;;;;6.70;82.35;99325.59;3480459;28;20425;-52
2021/04/22 02:32:07;;;;;;;19.58;12.98;;;;;;;6.69;82.19;99323.84;3483759;28;20053;-51
2021/04/22 02:33:53;;;;;;;17.27;12.68;;;;;;;6.69;82.22;99326.44;3473722;28;20061;-51
2021/04/22 02:35:36;;;;;;;19.30;12.40;;;;;;;6.67;81.87;99318.66;3472230;28;20053;-52
2021/04/22 02:37:17;;;;;;;18.77;13.73;;;;;;;6.66;81.86;99324.63;3482280;28;20518;-54
2021/04/22 02:38:59;;;;;;;18.00;12.90;;;;;;;6.65;81.83;99327.19;3480491;28;20414;-46
2021/04/22 02:40:42;;;;;;;18.40;13.38;;;;;;;6.63;82.09;99329.72;3484039;28;20430;-51
2021/04/22 02:42:24;;;;;;;20.00;13.57;;;;;;;6.62;82.08;99322.81;3479341;28;20435;-51
2021/04/22 02:44:05;;;;;;;21.60;14.23;;;;;;;6.61;82.55;99328.84;3482909;28;20281;-51
2021/04/22 02:45:49;;;;;;;18.25;13.20;;;;;;;6.61;82.12;99330.50;3480286;28;20077;-51
2021/04/22 02:47:30;;;;;;;20.40;13.82;;;;;;;6.60;82.20;99329.66;3480519;28;20099;-45
2021/04/22 02:49:12;;;;;;;17.55;13.38;;;;;;;6.58;81.92;99328.75;3482331;28;20189;-47
2021/04/22 02:50:55;;;;;;;16.75;12.05;;;;;;;6.55;81.70;99332.97;3480223;28;20052;-45
2021/04/22 02:52:37;;;;;;;19.85;13.55;;;;;;;6.54;81.88;99328.63;3483478;28;20548;-46
2021/04/22 02:54:19;;;;;;;21.42;12.75;;;;;;;6.51;82.37;99332.88;3478742;28;20490;-46
2021/04/22 02:56:01;;;;;;;19.73;13.60;;;;;;;6.50;82.61;99336.28;3482073;28;20087;-45
2021/04/22 02:57:42;;;;;;;20.40;13.38;;;;;;;6.49;82.47;99328.53;3472848;28;20426;-51
2021/04/22 02:59:24;;;;;;;20.65;13.25;;;;;;;6.48;82.43;99332.78;3471404;28;20080;-52
2021/04/22 03:01:05;;;;;;;20.00;12.93;;;;;;;6.45;82.65;99335.31;3482275;28;20438;-54
2021/04/22 03:02:47;;;;;;;20.67;13.63;;;;;;;6.45;82.54;99340.47;3479954;28;20579;-51
2021/04/22 03:04:28;;;;;;;20.50;12.95;;;;;;;6.41;82.56;99338.63;3483782;28;20053;-53
2021/04/22 03:06:09;;;;;;;19.60;13.70;;;;;;;6.40;82.66;99339.47;3479055;28;20048;-46
2021/04/22 03:07:51;;;;;;;19.38;13.43;;;;;;;6.39;82.94;99340.31;3482919;28;20525;-46
2021/04/22 03:09:33;;;;;;;19.77;14.07;;;;;;;6.38;83.20;99351.44;3480495;28;20053;-46
2021/04/22 03:11:14;;;;;;;21.05;13.82;;;;;;;6.38;82.97;99353.16;3479280;28;20046;-45
2021/04/22 03:12:56;;;;;;;19.20;13.88;;;;;;;6.37;83.25;99354.84;3470632;28;20049;-53
2021/04/22 03:14:38;;;;;;;20.85;13.52;;;;;;;6.35;83.26;99353.94;3478481;28;20045;-51
2021/04/22 03:16:19;;;;;;;19.98;14.20;;;;;;;6.35;83.20;99355.63;3483445;28;20077;-51
2021/04/22 03:18:01;;;;;;;22.17;13.27;;;;;;;6.34;83.46;99356.47;3478709;28;20052;-52
2021/04/22 03:19:42;;;;;;;18.38;13.43;;;;;;;6.34;83.45;99353.91;3482784;28;20049;-52
2021/04/22 03:21:24;;;;;;;19.23;13.60;;;;;;;6.32;83.60;99354.72;3480448;28;20067;-46
2021/04/22 03:23:06;;;;;;;21.85;14.00;;;;;;;6.34;83.38;99354.78;3481456;28;20049;-50
2021/04/22 03:24:48;;;;;;;27.70;15.45;;;;;;;6.34;83.63;99359.06;3482161;28;20528;-52
2021/04/22 03:26:30;;;;;;;21.60;14.57;;;;;;;6.35;83.38;99355.63;3478446;28;20049;-51
2021/04/22 03:28:11;;;;;;;22.38;14.95;;;;;;;6.35;83.62;99360.78;3483245;28;20072;-52
2021/04/22 03:29:52;;;;;;;20.73;14.85;;;;;;;6.36;83.69;99359.97;3478880;28;20048;-52
2021/04/22 03:31:34;;;;;;;21.70;14.35;;;;;;;6.35;83.58;99359.09;3482906;28;20049;-52
2021/04/22 03:33:15;;;;;;;24.58;14.65;;;;;;;6.36;83.59;99354.81;3480076;28;20080;-51
2021/04/22 03:34:57;;;;;;;23.30;13.93;;;;;;;6.37;83.41;99357.44;3479107;28;20045;-54
2021/04/22 03:36:38;;;;;;;22.70;14.88;;;;;;;6.39;83.77;99362.63;3481763;28;20053;-45
2021/04/22 03:38:19;;;;;;;19.23;13.93;;;;;;;6.41;83.52;99366.97;3479863;28;20506;-53
2021/04/22 03:40:03;;;;;;;22.80;14.55;;;;;;;6.43;83.35;99367.00;3483090;28;20068;-54
2021/04/22 03:41:45;;;;;;;18.20;13.60;;;;;;;6.42;83.03;99365.28;3478212;28;20091;-52
2021/04/22 03:43:26;;;;;;;23.10;14.13;;;;;;;6.46;83.10;99369.69;3482828;28;20045;-53
2021/04/22 03:45:10;;;;;;;20.80;14.13;;;;;;;6.47;83.18;99367.16;3472350;28;20058;-52
2021/04/22 03:46:52;;;;;;;28.95;14.30;;;;;;;6.49;83.06;99373.19;3470900;28;20049;-51
2021/04/22 03:48:33;;;;;;;20.35;14.23;;;;;;;6.53;82.97;99378.44;3482067;28;20434;-45
2021/04/22 03:50:16;;;;;;;21.50;14.77;;;;;;;6.56;82.97;99373.34;3479801;28;20080;-46
2021/04/22 03:51:57;;;;;;;22.17;14.10;;;;;;;6.59;83.04;99378.56;3482918;28;20415;-46
2021/04/22 03:53:39;;;;;;;23.90;14.40;;;;;;;6.63;83.14;99378.69;3479411;28;20095;-45
2021/04/22 03:55:21;;;;;;;20.10;14.43;;;;;;;6.67;83.19;99374.50;3482503;28;20065;-46
2021/04/22 03:57:04;;;;;;;20.50;13.15;;;;;;;6.73;82.94;99378.91;3480301;28;20053;-55
2021/04/22 03:58:46;;;;;;;19.15;13.95;;;;;;;6.79;83.01;99379.06;3481231;28;20041;-45
2021/04/22 04:00:28;;;;;;;23.25;14.80;;;;;;;6.84;82.52;99377.47;3481829;28;20078;-46
2021/04/22 04:02:09;;;;;;;20.83;14.32;;;;;;;6.91;82.44;99386.22;3478192;28;20041;-46
2021/04/22 04:03:51;;;;;;;19.33;13.75;;;;;;;6.98;81.84;99386.44;3483380;28;20489;-45
2021/04/22 04:05:32;;;;;;;23.60;13.57;;;;;;;7.04;81.69;99381.41;3478203;28;20525;-45
2021/04/22 04:07:14;;;;;;;20.92;14.00;;;;;;;7.11;81.59;99387.59;3482639;28;20057;-51
2021/04/22 04:08:55;;;;;;;19.35;13.15;;;;;;;7.18;81.57;99388.63;3480123;28;20049;-53
2021/04/22 04:10:37;;;;;;;22.75;14.60;;;;;;;7.26;81.25;99389.63;3479585;28;20060;-55
2021/04/22 04:12:18;;;;;;;20.35;12.85;;;;;;;7.33;81.05;99388.06;3482598;28;20072;-51
2021/04/22 04:14:00;;;;;;;19.48;13.45;;;;;;;7.38;80.64;99389.91;3474155;28;20049;-52
2021/04/22 04:15:45;;;;;;;19.42;13.52;;;;;;;7.47;80.57;99396.13;3469169;28;20531;-53
2021/04/22 04:17:26;;;;;;;25.88;14.40;;;;;;;7.55;80.40;99397.16;3477928;28;20056;-52
2021/04/22 04:19:08;;;;;;;22.23;13.27;;;;;;;7.62;79.89;99399.91;3478892;28;20592;-51
2021/04/22 04:20:50;;;;;;;20.20;14.00;;;;;;;7.70;79.89;99402.63;3482004;28;20052;-52
2021/04/22 04:22:31;;;;;;;19.77;13.77;;;;;;;7.80;79.48;99406.28;3477463;28;20645;-54
2021/04/22 04:24:12;;;;;;;20.73;14.57;;;;;;;7.90;79.69;99409.91;3482740;28;20502;-52
2021/04/22 04:25:55;;;;;;;21.40;14.55;;;;;;;7.97;79.23;99417.84;3478002;28;20048;-52
2021/04/22 04:27:37;;;;;;;22.70;14.13;;;;;;;7.99;78.67;99416.16;3481745;28;20097;-51
2021/04/22 04:29:18;;;;;;;20.00;13.68;;;;;;;8.00;78.63;99414.44;3478663;28;20576;-53
2021/04/22 04:31:01;;;;;;;22.13;13.80;;;;;;;7.97;78.23;99417.84;3480187;28;20049;-46
2021/04/22 04:32:42;;;;;;;21.40;13.75;;;;;;;7.99;78.46;99412.72;3481808;28;20076;-46
2021/04/22 04:34:24;;;;;;;21.58;14.13;;;;;;;8.05;78.53;99419.69;3479221;28;20046;-46
2021/04/22 04:36:06;;;;;;;19.02;12.50;;;;;;;8.11;78.10;99415.53;3482391;28;20099;-46
2021/04/22 04:37:48;;;;;;;20.25;12.80;;;;;;;8.18;77.51;99411.31;3479138;28;20052;-46
2021/04/22 04:39:29;;;;;;;21.23;14.27;;;;;;;8.27;77.83;99424.44;3482315;28;20045;-45
2021/04/22 04:41:12;;;;;;;19.50;14.18;;;;;;;8.35;77.14;99417.69;3479594;28;20053;-46
2021/04/22 04:42:54;;;;;;;22.55;14.95;;;;;;;8.44;76.73;99421.28;3478661;28;20041;-46
2021/04/22 04:44:35;;;;;;;21.83;13.70;;;;;;;8.54;76.67;99425.78;3481882;28;20049;-46
2021/04/22 04:46:18;;;;;;;23.13;16.15;;;;;;;8.64;76.33;99417.34;3479308;28;20053;-51
2021/04/22 04:48:00;;;;;;;29.00;17.33;;;;;;;8.74;75.59;99420.94;3482382;28;20123;-53
2021/04/22 04:49:41;;;;;;;37.70;20.25;;;;;;;8.83;75.60;99428.00;3479063;28;20556;-52
2021/04/22 04:51:22;;;;;;;26.33;16.08;;;;;;;8.92;75.34;99418.69;3481489;28;20057;-52
2021/04/22 04:53:04;;;;;;;19.77;13.18;;;;;;;9.01;74.57;99427.41;3471269;28;20048;-52
2021/04/22 04:54:45;;;;;;;22.17;13.73;;;;;;;9.08;74.89;99435.31;3470914;28;20079;-51
2021/04/22 04:56:27;;;;;;;18.13;12.52;;;;;;;9.16;74.43;99423.34;3480553;28;20052;-46
2021/04/22 04:58:08;;;;;;;21.80;14.23;;;;;;;9.24;74.19;99427.78;3479398;28;20052;-52
2021/04/22 04:59:51;;;;;;;17.45;12.13;;;;;;;9.25;73.78;99426.94;3482502;28;20045;-51
2021/04/22 05:01:32;;;;;;;19.58;12.45;;;;;;;9.25;73.59;99427.81;3478910;28;20057;-52
2021/04/22 05:03:13;;;;;;;18.35;13.13;;;;;;;9.28;73.80;99432.16;3481393;28;20076;-52
2021/04/22 05:04:55;;;;;;;17.13;12.38;;;;;;;9.36;73.64;99430.53;3478640;28;20051;-52
2021/04/22 05:06:37;;;;;;;17.40;12.48;;;;;;;9.45;73.47;99422.97;3479905;28;20052;-53
2021/04/22 05:08:18;;;;;;;16.48;11.80;;;;;;;9.58;72.94;99420.50;3481726;28;20056;-53
2021/04/22 05:10:00;;;;;;;16.38;12.30;;;;;;;9.70;73.14;99423.28;3477647;28;20484;-47
2021/04/22 05:11:42;;;;;;;17.10;11.77;;;;;;;9.83;71.79;99427.78;3482313;28;20053;-46
2021/04/22 05:13:24;;;;;;;15.98;11.57;;;;;;;9.91;72.04;99431.34;3477272;28;20049;-45
2021/04/22 05:15:07;;;;;;;19.10;12.48;;;;;;;9.97;70.81;99429.69;3481938;28;20303;-46
2021/04/22 05:16:49;;;;;;;18.33;12.65;;;;;;;10.00;70.79;99428.00;3479212;28;20053;-46
2021/04/22 05:18:30;;;;;;;16.52;12.35;;;;;;;10.06;71.04;99434.97;3479677;28;20063;-46
2021/04/22 05:20:13;;;;;;;18.15;12.40;;;;;;;10.08;70.99;99436.72;3480873;28;20095;-53
2021/04/22 05:21:54;;;;;;;19.60;13.25;;;;;;;10.04;70.44;99427.16;3478519;28;20422;-55
2021/04/22 05:23:36;;;;;;;17.10;11.95;;;;;;;10.01;70.85;99431.44;3482032;28;20053;-52
2021/04/22 05:25:17;;;;;;;17.02;12.52;;;;;;;9.99;70.54;99438.34;3478427;28;20056;-52
2021/04/22 05:26:59;;;;;;;18.55;12.13;;;;;;;9.93;70.69;99433.97;3481911;28;20106;-46
2021/04/22 05:28:41;;;;;;;19.63;12.63;;;;;;;9.93;71.42;99439.13;3477904;28;20518;-46
2021/04/22 05:30:24;;;;;;;19.70;12.77;;;;;;;9.97;71.24;99433.13;3479532;28;20514;-47
2021/04/22 05:32:07;;;;;;;19.05;12.30;;;;;;;9.99;71.03;99435.75;3480747;28;20049;-47
2021/04/22 05:33:49;;;;;;;16.40;11.88;;;;;;;10.02;71.00;99439.25;3478337;28;20533;-46
2021/04/22 05:35:31;;;;;;;17.35;12.57;;;;;;;10.10;71.44;99444.50;3484861;28;20136;-46
2021/04/22 05:37:12;;;;;;;24.98;13.85;;;;;;;10.21;70.98;99435.16;3481277;28;20076;-46
2021/04/22 05:38:53;;;;;;;14.25;10.38;;;;;;;10.32;70.23;99439.56;3483871;28;20049;-46
2021/04/22 05:40:35;;;;;;;21.67;13.63;;;;;;;10.35;69.90;99437.00;3481884;28;20059;-46
2021/04/22 05:42:17;;;;;;;20.25;12.95;;;;;;;10.42;69.86;99449.19;3480203;28;20077;-46
2021/04/22 05:43:59;;;;;;;22.15;14.13;;;;;;;10.48;69.30;99441.47;3483298;28;20053;-46
2021/04/22 05:45:40;;;;;;;16.58;11.88;;;;;;;10.61;69.88;99434.69;3479684;28;20124;-46
2021/04/22 05:47:21;;;;;;;20.48;13.43;;;;;;;10.71;69.32;99446.03;3484319;28;20107;-46
2021/04/22 05:49:03;;;;;;;16.45;12.82;;;;;;;10.79;68.95;99433.97;3480946;28;20502;-51
2021/04/22 05:50:45;;;;;;;16.48;12.30;;;;;;;10.88;68.90;99441.84;3482779;28;20522;-51
2021/04/22 05:52:26;;;;;;;16.92;12.50;;;;;;;10.94;68.65;99439.31;3480870;28;20053;-51
2021/04/22 05:54:08;;;;;;;15.93;12.13;;;;;;;10.95;67.07;99432.38;3482037;28;20093;-52
2021/04/22 05:55:50;;;;;;;17.13;12.65;;;;;;;10.91;67.18;99435.81;3471545;28;20053;-54
2021/04/22 05:57:32;;;;;;;17.45;12.30;;;;;;;10.85;67.65;99441.84;3474566;28;20114;-51
2021/04/22 05:59:13;;;;;;;18.08;12.25;;;;;;;10.80;67.66;99446.97;3484206;28;20517;-46
2021/04/22 06:00:54;;;;;;;16.67;12.20;;;;;;;10.85;68.82;99440.09;3480717;28;20048;-47
2021/04/22 06:02:36;;;;;;;17.17;12.20;;;;;;;10.91;68.06;99441.00;3482996;28;20056;-47
2021/04/22 06:04:17;;;;;;;21.40;12.90;;;;;;;11.00;67.92;99433.28;3480896;28;20414;-45
2021/04/22 06:05:59;;;;;;;20.00;12.60;;;;;;;11.07;67.69;99438.53;3482180;28;20086;-52
2021/04/22 06:07:40;;;;;;;20.02;13.40;;;;;;;11.12;67.24;99436.00;3471465;28;20057;-53
2021/04/22 06:09:21;;;;;;;16.60;12.25;;;;;;;11.20;66.81;99433.44;3473231;28;20049;-52
2021/04/22 06:11:03;;;;;;;19.35;12.88;;;;;;;11.30;67.59;99432.66;3483969;28;20127;-50
2021/04/22 06:12:46;;;;;;;22.88;15.43;;;;;;;11.33;65.26;99440.50;3476502;28;20295;-51
2021/04/22 06:14:27;;;;;;;15.90;11.45;;;;;;;11.37;65.52;99434.47;3480745;28;20171;-53
2021/04/22 06:16:08;;;;;;;16.40;11.10;;;;;;;11.41;66.06;99437.94;3481007;28;20071;-52
2021/04/22 06:17:50;;;;;;;18.20;11.63;;;;;;;11.47;65.70;99430.22;3482014;28;20045;-51
2021/04/22 06:19:31;;;;;;;14.82;10.70;;;;;;;11.49;65.19;99433.69;3482743;28;20096;-50
2021/04/22 06:21:13;;;;;;;14.77;11.23;;;;;;;11.54;65.56;99433.72;3479916;28;20092;-53
2021/04/22 06:22:54;;;;;;;19.33;12.40;;;;;;;11.55;65.44;99428.53;3484017;28;20048;-50
2021/04/22 06:24:36;;;;;;;19.13;11.32;;;;;;;11.57;65.21;99432.00;3479266;28;20045;-52
2021/04/22 06:26:18;;;;;;;14.70;11.77;;;;;;;11.57;65.01;99439.81;3483093;28;20064;-51
2021/04/22 06:28:01;;;;;;;15.65;11.52;;;;;;;11.60;65.06;99446.72;3480135;28;20052;-51
2021/04/22 06:29:42;;;;;;;16.73;11.85;;;;;;;11.57;64.55;99438.91;3481219;28;20072;-52
2021/04/22 06:31:23;;;;;;;12.90;9.93;;;;;;;11.58;65.27;99443.25;3482215;28;20064;-50
2021/04/22 06:33:05;;;;;;;15.40;11.60;;;;;;;11.61;64.91;99449.34;3480222;28;20049;-50
2021/04/22 06:34:46;;;;;;;17.65;11.75;;;;;;;11.65;64.12;99447.63;3484221;28;20067;-52
2021/04/22 06:36:28;;;;;;;18.25;11.07;;;;;;;11.75;64.87;99446.81;3479252;28;20049;-51
2021/04/22 06:38:10;;;;;;;18.00;11.93;;;;;;;11.85;64.17;99449.47;3482971;28;20214;-54
2021/04/22 06:39:51;;;;;;;22.08;12.48;;;;;;;11.94;63.80;99449.50;3472516;28;20061;-50
2021/04/22 06:41:34;;;;;;;16.73;11.88;;;;;;;11.98;63.67;99449.53;3472167;28;20053;-53
2021/04/22 06:43:16;;;;;;;17.98;12.32;;;;;;;12.10;63.73;99458.22;3482465;28;20041;-52
2021/04/22 06:44:58;;;;;;;16.00;11.65;;;;;;;12.23;64.14;99457.44;3478232;28;20044;-51
2021/04/22 06:46:40;;;;;;;14.68;10.25;;;;;;;12.29;61.90;99454.84;3469809;28;20439;-52
2021/04/22 06:48:22;;;;;;;14.35;10.77;;;;;;;12.34;62.06;99460.06;3477963;28;20059;-54
2021/04/22 06:50:05;;;;;;;14.10;10.57;;;;;;;12.43;62.63;99459.22;3482527;28;20514;-50
2021/04/22 06:51:46;;;;;;;16.05;11.38;;;;;;;12.46;62.20;99454.03;3480095;28;20084;-53
2021/04/22 06:53:27;;;;;;;16.08;10.68;;;;;;;12.52;62.50;99457.53;3480945;28;20060;-50
2021/04/22 06:55:15;;;;;;;13.07;9.80;;;;;;;12.58;62.05;99456.66;3481973;28;20079;-51
2021/04/22 06:57:10;;;;;;;16.15;10.57;;;;;;;12.64;61.43;99468.81;3480068;28;20131;-50
2021/04/22 06:58:54;;;;;;;16.40;11.90;;;;;;;12.63;61.69;99464.47;3483714;28;20099;-51
2021/04/22 07:00:37;;;;;;;14.57;10.85;;;;;;;12.67;62.52;99463.63;3479812;28;20064;-53
2021/04/22 07:02:18;;;;;;;16.67;11.23;;;;;;;12.79;61.53;99457.53;3480139;28;20052;-51
2021/04/22 07:04:00;;;;;;;14.82;10.45;;;;;;;12.99;61.48;99453.25;3482177;28;20048;-51
2021/04/22 07:05:41;;;;;;;13.52;10.18;;;;;;;13.13;59.55;99446.31;3479089;28;20053;-50
2021/04/22 07:07:23;;;;;;;14.45;9.98;;;;;;;13.22;59.15;99450.66;3483434;28;20458;-51
2021/04/22 07:09:04;;;;;;;13.30;9.63;;;;;;;13.31;59.97;99445.44;3480121;28;20056;-47
2021/04/22 07:10:46;;;;;;;11.82;8.70;;;;;;;13.36;57.97;99448.03;3482850;28;20065;-46
2021/04/22 07:12:27;;;;;;;16.90;9.45;;;;;;;13.35;58.01;99450.66;3479221;28;20049;-48
2021/04/22 07:14:10;;;;;;;13.98;10.07;;;;;;;13.34;58.32;99452.38;3479967;28;20421;-47
2021/04/22 07:15:51;;;;;;;14.30;9.90;;;;;;;13.37;58.37;99449.78;3481186;28;20430;-46
2021/04/22 07:17:36;;;;;;;13.32;10.35;;;;;;;13.43;58.27;99443.69;3477325;28;20057;-46
2021/04/22 07:19:17;;;;;;;14.55;9.10;;;;;;;13.54;57.20;99448.88;3483444;28;20543;-45
2021/04/22 07:20:59;;;;;;;13.10;9.40;;;;;;;13.62;56.69;99448.00;3478624;28;20049;-52
2021/04/22 07:22:41;;;;;;;11.35;9.10;;;;;;;13.81;57.79;99440.13;3482085;28;20143;-51
2021/04/22 07:24:23;;;;;;;11.32;9.00;;;;;;;13.97;57.12;99446.16;3479769;28;20403;-50
2021/04/22 07:26:04;;;;;;;10.77;8.23;;;;;;;14.16;56.58;99441.72;3480667;28;20095;-54
2021/04/22 07:27:50;;;;;;;13.45;9.00;;;;;;;14.40;55.23;99446.00;3482268;28;20564;-53
2021/04/22 07:29:32;;;;;;;14.85;8.40;;;;;;;14.56;54.13;99439.81;3479769;28;20056;-51
2021/04/22 07:31:13;;;;;;;13.70;8.25;;;;;;;14.66;53.55;99438.00;3483214;28;20083;-51
2021/04/22 07:32:58;;;;;;;11.82;8.38;;;;;;;14.76;53.51;99439.66;3480284;28;20049;-47
2021/04/22 07:34:39;;;;;;;13.95;8.38;;;;;;;14.97;54.08;99440.38;3481022;28;20422;-47
2021/04/22 07:36:21;;;;;;;12.30;9.15;;;;;;;15.08;53.17;99438.53;3480616;28;20520;-46
2021/04/22 07:38:03;;;;;;;20.33;8.18;;;;;;;15.18;52.39;99428.88;3478518;28;20473;-44
2021/04/22 07:39:45;;;;;;;10.13;7.65;;;;;;;15.22;52.52;99447.16;3482888;28;20102;-48
2021/04/22 07:41:27;;;;;;;12.05;8.60;;;;;;;15.29;51.68;99437.47;3479741;28;20052;-47
2021/04/22 07:43:10;;;;;;;13.18;9.10;;;;;;;15.33;51.86;99430.47;3482917;28;20087;-47
2021/04/22 07:44:52;;;;;;;13.55;8.90;;;;;;;15.54;53.37;99430.28;3479570;28;20430;-48
2021/04/22 07:46:34;;;;;;;13.35;8.02;;;;;;;15.76;50.72;99437.94;3482105;28;20060;-45
2021/04/22 07:48:15;;;;;;;9.93;7.70;;;;;;;15.86;50.37;99431.72;3480802;28;20049;-46
2021/04/22 07:49:57;;;;;;;10.10;7.43;;;;;;;15.99;50.91;99435.03;3479665;28;20988;-47
2021/04/22 07:51:39;;;;;;;12.32;8.30;;;;;;;16.12;50.53;99431.41;3482814;28;20048;-51
2021/04/22 07:53:20;;;;;;;11.38;7.57;;;;;;;16.35;50.07;99433.72;3478377;28;20095;-51